Time;durP1;ratioP1;P1;durP2;ratioP2;P2;SDS_P1;SDS_P2;PMS_P1;PMS_P2;Temp;Humidity;BMP_temperature;BMP_pressure;BME280_temperature;BME280_humidity;BME280_pressure;Samples;Min_cycle;Max_cycle;Signal;HPM_P1;HPM_P2
2022/05/21 00:00:34;;;;;;;1.60;1.50;;;12.30;99.90;;;;;;5113577;28;20205;-66
2022/05/21 00:03:01;;;;;;;2.67;1.03;;;12.30;99.90;;;;;;5113602;28;20197;-65
2022/05/21 00:05:33;;;;;;;1.63;1.47;;;12.30;99.90;;;;;;5114962;28;20212;-65
2022/05/21 00:08:00;;;;;;;2.13;1.40;;;12.30;99.90;;;;;;5113654;28;20538;-65
2022/05/21 00:10:29;;;;;;;1.83;1.53;;;12.30;99.90;;;;;;5113179;28;20257;-66
2022/05/21 00:12:56;;;;;;;5.03;1.50;;;12.20;99.90;;;;;;5113699;28;20619;-66
2022/05/21 00:15:26;;;;;;;1.40;1.30;;;12.30;99.90;;;;;;5113365;28;20213;-66
2022/05/21 00:17:53;;;;;;;1.97;1.87;;;12.30;99.90;;;;;;5113259;28;20283;-66
2022/05/21 00:23:12;;;;;;;3.37;2.10;;;12.30;99.90;;;;;;5113254;28;20181;-65
2022/05/21 00:25:40;;;;;;;0.90;0.90;;;12.30;99.90;;;;;;5113240;28;20267;-66
2022/05/21 00:28:07;;;;;;;0.80;0.80;;;12.30;99.90;;;;;;5113160;28;20300;-66
2022/05/21 00:30:35;;;;;;;1.90;1.27;;;12.30;99.90;;;;;;5112913;28;20223;-66
2022/05/21 00:33:02;;;;;;;1.43;1.33;;;12.20;99.90;;;;;;5113119;28;20204;-65
2022/05/21 00:35:29;;;;;;;2.43;1.17;;;12.20;99.90;;;;;;5112618;28;20235;-65
2022/05/21 00:37:56;;;;;;;3.97;1.70;;;12.20;99.90;;;;;;5113054;28;20255;-66
2022/05/21 00:40:25;;;;;;;1.00;0.90;;;12.20;99.90;;;;;;5113013;28;20196;-66
2022/05/21 00:42:53;;;;;;;1.20;0.87;;;12.30;99.90;;;;;;5113162;28;20228;-66
2022/05/21 00:45:19;;;;;;;3.10;0.83;;;12.20;99.90;;;;;;5113073;28;20199;-66
2022/05/21 00:47:47;;;;;;;1.30;0.47;;;12.20;99.90;;;;;;5112961;28;20208;-66
2022/05/21 00:50:18;;;;;;;1.03;1.03;;;12.10;99.90;;;;;;5112452;28;20579;-66
2022/05/21 00:52:46;;;;;;;0.57;0.57;;;12.10;99.90;;;;;;5112976;28;20185;-66
2022/05/21 00:55:16;;;;;;;0.63;0.63;;;12.20;99.90;;;;;;5112952;28;20202;-66
2022/05/21 00:57:49;;;;;;;0.50;0.50;;;12.10;99.90;;;;;;5112835;28;20241;-67
2022/05/21 01:00:19;;;;;;;1.10;1.00;;;12.10;99.90;;;;;;5112879;28;20573;-66
2022/05/21 01:02:50;;;;;;;0.97;0.87;;;12.10;99.90;;;;;;5112822;28;20202;-65
2022/05/21 01:05:19;;;;;;;0.40;0.40;;;12.10;99.90;;;;;;5112884;28;20184;-66
2022/05/21 01:07:47;;;;;;;0.70;0.70;;;12.10;99.90;;;;;;5112437;28;20716;-66
2022/05/21 01:10:17;;;;;;;0.40;0.30;;;12.10;99.90;;;;;;5112522;28;20700;-66
2022/05/21 01:12:49;;;;;;;1.63;0.80;;;12.20;99.90;;;;;;5112764;28;20188;-66
2022/05/21 01:15:21;;;;;;;1.17;1.00;;;12.20;99.90;;;;;;5112421;28;20191;-65
2022/05/21 01:17:48;;;;;;;0.80;0.70;;;12.20;99.90;;;;;;5112727;28;20172;-65
2022/05/21 01:20:18;;;;;;;0.20;0.20;;;12.10;99.90;;;;;;5112243;28;20209;-66
2022/05/21 01:22:47;;;;;;;6.93;1.40;;;12.10;99.90;;;;;;5112647;28;20190;-66
2022/05/21 01:25:18;;;;;;;0.70;0.70;;;12.10;99.90;;;;;;5112587;28;21014;-66
2022/05/21 01:27:46;;;;;;;2.43;1.20;;;12.10;99.90;;;;;;5113378;28;21008;-66
2022/05/21 01:30:17;;;;;;;1.53;1.13;;;12.10;99.90;;;;;;5112897;28;20193;-65
2022/05/21 01:32:46;;;;;;;2.33;0.90;;;12.10;99.90;;;;;;5112687;28;20543;-63
2022/05/21 01:35:14;;;;;;;2.23;1.20;;;12.10;99.90;;;;;;5112205;28;20235;-62
2022/05/21 01:37:42;;;;;;;0.80;0.80;;;12.10;99.90;;;;;;5112795;28;20212;-63
2022/05/21 01:40:12;;;;;;;4.47;0.63;;;12.00;99.90;;;;;;5112236;28;20702;-63
2022/05/21 01:42:39;;;;;;;0.73;0.73;;;12.00;99.90;;;;;;5114032;28;20206;-64
2022/05/21 01:45:07;;;;;;;0.77;0.63;;;12.10;99.90;;;;;;5116351;27;20203;-64
2022/05/21 01:47:34;;;;;;;8.90;1.10;;;12.00;99.90;;;;;;5116355;28;20207;-64
2022/05/21 01:50:01;;;;;;;5.73;1.47;;;12.00;99.90;;;;;;5116786;28;20207;-64
2022/05/21 01:52:29;;;;;;;0.83;0.77;;;12.00;99.90;;;;;;5115751;28;20204;-64
2022/05/21 01:54:56;;;;;;;0.67;0.60;;;12.00;99.90;;;;;;5117127;28;20204;-65
2022/05/21 01:57:24;;;;;;;2.73;1.73;;;11.90;99.90;;;;;;5115721;28;20684;-65
2022/05/21 01:59:52;;;;;;;0.40;0.37;;;12.00;99.90;;;;;;5115691;28;20220;-64
2022/05/21 02:02:19;;;;;;;1.20;0.87;;;12.00;99.90;;;;;;5116232;28;20213;-65
2022/05/21 02:04:46;;;;;;;1.43;0.40;;;11.90;99.90;;;;;;5115446;28;20215;-64
2022/05/21 02:07:13;;;;;;;0.30;0.30;;;11.90;99.90;;;;;;5116597;27;20245;-64
2022/05/21 02:09:39;;;;;;;3.33;1.03;;;11.80;99.90;;;;;;5116023;28;20193;-65
2022/05/21 02:12:10;;;;;;;2.83;1.37;;;11.80;99.90;;;;;;5115675;28;20203;-65
2022/05/21 02:14:38;;;;;;;1.80;1.70;;;11.90;99.90;;;;;;5115870;28;20595;-64
2022/05/21 02:17:06;;;;;;;0.57;0.57;;;11.90;99.90;;;;;;5115598;28;20193;-64
2022/05/21 02:19:33;;;;;;;2.57;0.93;;;11.90;99.90;;;;;;5115297;28;20224;-64
2022/05/21 02:22:00;;;;;;;1.43;1.40;;;12.00;99.90;;;;;;5115902;28;20596;-64
2022/05/21 02:24:27;;;;;;;0.50;0.43;;;11.90;99.90;;;;;;5115540;28;20196;-65
2022/05/21 02:26:54;;;;;;;0.93;0.93;;;11.90;99.90;;;;;;5115474;28;20204;-65
2022/05/21 02:29:21;;;;;;;1.07;1.07;;;12.00;99.90;;;;;;5115335;28;20235;-66
2022/05/21 02:31:50;;;;;;;4.00;0.73;;;12.00;99.90;;;;;;5115247;28;20203;-64
2022/05/21 02:34:18;;;;;;;1.30;1.20;;;12.00;99.90;;;;;;5114763;28;20206;-64
2022/05/21 02:39:29;;;;;;;2.30;1.63;;;12.00;99.90;;;;;;5115127;28;20208;-65
2022/05/21 02:41:57;;;;;;;1.17;0.77;;;12.10;99.90;;;;;;5115047;28;20665;-65
2022/05/21 02:44:25;;;;;;;3.40;1.40;;;12.10;99.90;;;;;;5115764;28;20637;-70
2022/05/21 02:46:54;;;;;;;0.80;0.80;;;12.10;99.90;;;;;;5115646;28;20204;-64
2022/05/21 02:49:21;;;;;;;1.30;1.20;;;12.10;99.90;;;;;;5115272;28;20586;-65
2022/05/21 02:51:48;;;;;;;1.90;0.97;;;12.10;99.90;;;;;;5116723;28;20193;-65
2022/05/21 02:54:15;;;;;;;1.00;0.70;;;12.10;99.90;;;;;;5115043;28;20570;-64
2022/05/21 02:56:47;;;;;;;1.43;1.37;;;12.10;99.90;;;;;;5114954;28;20599;-65
2022/05/21 02:59:15;;;;;;;1.80;1.00;;;12.20;99.90;;;;;;5114607;28;20248;-65
2022/05/21 03:01:41;;;;;;;3.27;0.77;;;12.20;99.90;;;;;;5114798;28;20212;-65
2022/05/21 03:04:10;;;;;;;1.80;1.20;;;12.20;99.90;;;;;;5114788;28;20200;-64
2022/05/21 03:06:38;;;;;;;0.40;0.40;;;12.20;99.90;;;;;;5114590;28;20262;-64
2022/05/21 03:11:50;;;;;;;6.77;2.63;;;12.20;99.90;;;;;;5114500;28;20184;-65
2022/05/21 03:14:17;;;;;;;1.07;0.83;;;12.20;99.90;;;;;;5114555;28;20295;-64
2022/05/21 03:16:44;;;;;;;2.30;1.10;;;12.20;99.90;;;;;;5114260;28;20254;-64
2022/05/21 03:19:13;;;;;;;0.97;0.93;;;12.10;99.90;;;;;;5114838;28;20204;-66
2022/05/21 03:21:40;;;;;;;0.90;0.90;;;12.10;99.90;;;;;;5114471;28;20204;-64
2022/05/21 03:24:08;;;;;;;0.47;0.47;;;12.10;99.90;;;;;;5114270;28;20201;-65
2022/05/21 03:26:35;;;;;;;1.80;1.33;;;12.10;99.90;;;;;;5114187;28;20201;-65
2022/05/21 03:29:02;;;;;;;1.80;1.10;;;12.10;99.90;;;;;;5114288;28;20295;-64
2022/05/21 03:31:29;;;;;;;2.50;1.03;;;12.10;99.90;;;;;;5114202;28;20668;-65
2022/05/21 03:33:56;;;;;;;2.13;1.47;;;12.20;99.90;;;;;;5113862;28;20201;-64
2022/05/21 03:36:25;;;;;;;2.40;1.73;;;12.20;99.90;;;;;;5113487;28;20236;-64
2022/05/21 03:38:53;;;;;;;2.77;1.23;;;12.20;99.90;;;;;;5113874;28;20576;-65
2022/05/21 03:41:20;;;;;;;1.10;1.00;;;12.20;99.90;;;;;;5114023;28;20197;-64
2022/05/21 03:43:47;;;;;;;1.90;1.80;;;12.20;99.90;;;;;;5114107;28;20201;-65
2022/05/21 03:46:14;;;;;;;3.33;1.63;;;12.20;99.90;;;;;;5114016;28;20193;-64
2022/05/21 03:48:41;;;;;;;0.70;0.70;;;12.20;99.90;;;;;;5113530;28;20531;-64
2022/05/21 03:51:08;;;;;;;0.50;0.50;;;12.20;99.90;;;;;;5113873;28;20286;-67
2022/05/21 03:53:36;;;;;;;2.90;1.47;;;12.20;99.90;;;;;;5113846;28;20548;-67
2022/05/21 03:56:04;;;;;;;1.97;1.87;;;12.20;99.90;;;;;;5113482;28;20212;-67
2022/05/21 03:58:32;;;;;;;3.20;1.70;;;12.20;99.90;;;;;;5113537;28;20203;-67
2022/05/21 04:00:59;;;;;;;5.33;1.90;;;12.20;99.90;;;;;;5113612;28;20234;-67
2022/05/21 04:03:27;;;;;;;2.70;1.30;;;12.30;99.90;;;;;;5113212;28;20755;-65
2022/05/21 04:05:55;;;;;;;1.80;1.20;;;12.30;99.90;;;;;;5112862;28;20203;-66
2022/05/21 04:08:23;;;;;;;0.87;0.87;;;12.20;99.90;;;;;;5113507;28;20200;-66
2022/05/21 04:10:51;;;;;;;2.10;1.30;;;12.30;99.90;;;;;;5113534;28;20191;-67
2022/05/21 04:13:19;;;;;;;1.33;1.20;;;12.30;99.90;;;;;;5113533;28;20213;-66
2022/05/21 04:15:46;;;;;;;5.90;1.17;;;12.30;99.90;;;;;;5113447;28;20203;-67
2022/05/21 04:18:13;;;;;;;2.93;0.90;;;12.30;99.90;;;;;;5114079;28;20206;-68
2022/05/21 04:20:40;;;;;;;3.53;1.50;;;12.40;99.90;;;;;;5114626;28;20251;-67
2022/05/21 04:23:07;;;;;;;0.73;0.67;;;12.40;99.90;;;;;;5113094;28;20228;-67
2022/05/21 04:25:34;;;;;;;1.67;0.93;;;12.40;99.90;;;;;;5113285;28;20271;-67
2022/05/21 04:28:03;;;;;;;4.23;1.97;;;12.40;99.90;;;;;;5113009;28;20651;-67
2022/05/21 04:30:31;;;;;;;1.80;0.70;;;12.40;99.90;;;;;;5113207;28;20315;-66
2022/05/21 04:32:59;;;;;;;0.87;0.87;;;12.40;99.90;;;;;;5113275;28;20669;-66
2022/05/21 04:36:17;;;;;;;3.40;1.40;;;12.40;99.90;;;;;;5112877;28;20609;-66
2022/05/21 04:38:16;;;;;;;2.90;1.23;;;12.40;99.90;;;;;;5112782;28;20615;-66
2022/05/21 04:40:44;;;;;;;7.50;2.27;;;12.50;99.90;;;;;;5113071;28;20226;-66
2022/05/21 04:43:12;;;;;;;0.60;0.60;;;12.40;99.90;;;;;;5113225;28;20200;-65
2022/05/21 04:45:40;;;;;;;2.77;1.23;;;12.40;99.90;;;;;;5113208;28;20262;-66
2022/05/21 04:48:08;;;;;;;2.00;1.47;;;12.50;99.90;;;;;;5112874;28;20217;-66
2022/05/21 04:50:36;;;;;;;5.77;2.10;;;12.50;99.90;;;;;;5113538;28;20195;-66
2022/05/21 04:53:04;;;;;;;1.17;1.03;;;12.40;99.90;;;;;;5113285;28;20885;-67
2022/05/21 04:55:31;;;;;;;2.27;0.87;;;12.40;99.90;;;;;;5113379;28;20196;-67
2022/05/21 04:57:58;;;;;;;3.20;1.43;;;12.50;99.90;;;;;;5113056;28;20214;-67
2022/05/21 05:00:27;;;;;;;2.30;1.00;;;12.50;99.90;;;;;;5113203;28;20266;-66
2022/05/21 05:02:54;;;;;;;1.47;1.23;;;12.60;99.90;;;;;;5113090;28;20600;-65
2022/05/21 05:05:22;;;;;;;3.83;1.20;;;12.60;99.90;;;;;;5113140;28;20536;-66
2022/05/21 05:07:49;;;;;;;1.57;0.93;;;12.60;99.90;;;;;;5113258;28;20244;-66
2022/05/21 05:10:17;;;;;;;2.63;1.47;;;12.60;99.90;;;;;;5113158;28;20247;-66
2022/05/21 05:12:44;;;;;;;2.27;1.07;;;12.60;99.90;;;;;;5113062;28;20675;-66
2022/05/21 05:15:11;;;;;;;3.23;1.30;;;12.60;99.90;;;;;;5113208;28;20253;-64
2022/05/21 05:17:40;;;;;;;4.20;2.90;;;12.70;99.90;;;;;;5114149;28;20207;-65
2022/05/21 05:20:08;;;;;;;70.57;4.83;;;12.70;99.90;;;;;;5116597;28;20233;-66
2022/05/21 05:22:35;;;;;;;3.50;1.53;;;12.70;99.90;;;;;;5116638;28;20196;-66
2022/05/21 05:25:04;;;;;;;2.87;1.83;;;12.70;99.90;;;;;;5116614;28;20201;-66
2022/05/21 05:27:31;;;;;;;3.10;1.27;;;12.70;99.90;;;;;;5116225;28;20201;-66
2022/05/21 05:29:58;;;;;;;0.93;0.90;;;12.80;99.90;;;;;;5116452;28;20186;-66
2022/05/21 05:32:25;;;;;;;4.17;1.83;;;12.80;99.90;;;;;;5116535;28;20337;-66
2022/05/21 05:34:53;;;;;;;4.30;1.97;;;12.90;99.90;;;;;;5116360;28;20597;-66
2022/05/21 05:37:20;;;;;;;15.97;1.47;;;12.90;99.90;;;;;;5116040;27;20201;-68
2022/05/21 05:39:48;;;;;;;1.70;1.60;;;12.90;99.90;;;;;;5116560;28;20281;-68
2022/05/21 05:42:17;;;;;;;3.20;2.03;;;12.90;99.90;;;;;;5118579;28;20202;-69
2022/05/21 05:44:44;;;;;;;1.70;1.50;;;12.80;99.90;;;;;;5116391;28;20189;-67
2022/05/21 05:47:11;;;;;;;3.73;2.13;;;12.80;99.90;;;;;;5115937;28;20662;-67
2022/05/21 05:49:38;;;;;;;4.30;2.00;;;12.90;99.90;;;;;;5115638;28;20201;-67
2022/05/21 05:52:09;;;;;;;3.60;2.33;;;12.90;99.90;;;;;;5115836;28;20212;-67
2022/05/21 05:54:37;;;;;;;3.23;1.83;;;12.90;99.90;;;;;;5115345;28;20639;-69
2022/05/21 05:57:09;;;;;;;0.77;0.77;;;12.90;99.90;;;;;;5115701;28;20299;-67
2022/05/21 05:59:51;;;;;;;2.73;1.43;;;13.00;99.90;;;;;;5115963;28;20744;-67
2022/05/21 06:05:06;;;;;;;2.17;1.70;;;13.10;99.90;;;;;;5116100;28;20323;-65
2022/05/21 06:07:34;;;;;;;6.40;2.50;;;13.10;99.90;;;;;;5116708;28;20678;-66
2022/05/21 06:10:03;;;;;;;1.33;1.23;;;13.20;99.90;;;;;;5116038;28;20201;-66
2022/05/21 06:12:31;;;;;;;2.43;2.17;;;13.20;99.90;;;;;;5116007;28;20201;-66
2022/05/21 06:14:58;;;;;;;1.43;1.30;;;13.20;99.90;;;;;;5115483;28;20212;-66
2022/05/21 06:17:25;;;;;;;7.27;2.20;;;13.30;99.90;;;;;;5115674;28;20199;-66
2022/05/21 06:19:53;;;;;;;7.43;3.80;;;13.40;99.90;;;;;;5115015;28;20217;-66
2022/05/21 06:22:20;;;;;;;1.10;0.97;;;13.40;99.90;;;;;;5115303;28;20194;-66
2022/05/21 06:24:48;;;;;;;2.17;1.97;;;13.60;99.90;;;;;;5115512;28;20197;-66
2022/05/21 06:27:15;;;;;;;4.90;3.53;;;13.70;99.90;;;;;;5115722;28;20197;-66
2022/05/21 06:29:42;;;;;;;0.83;0.77;;;13.70;99.90;;;;;;5115085;28;20201;-66
2022/05/21 06:32:10;;;;;;;1.63;1.53;;;13.70;99.90;;;;;;5115726;28;20197;-67
2022/05/21 06:34:38;;;;;;;5.30;1.03;;;13.70;99.90;;;;;;5115134;28;20198;-64
2022/05/21 06:37:06;;;;;;;8.10;3.03;;;13.70;99.90;;;;;;5115344;28;20278;-66
2022/05/21 06:39:34;;;;;;;8.40;2.10;;;13.70;99.90;;;;;;5116248;27;20671;-66
2022/05/21 06:42:03;;;;;;;3.00;2.13;;;13.80;99.90;;;;;;5116020;28;20197;-66
2022/05/21 06:44:30;;;;;;;3.33;1.67;;;13.70;99.90;;;;;;5115638;28;20250;-65
2022/05/21 06:46:58;;;;;;;7.07;3.90;;;13.80;99.90;;;;;;5115267;28;20201;-66
2022/05/21 06:49:26;;;;;;;5.40;2.73;;;13.70;99.90;;;;;;5114963;28;20587;-66
2022/05/21 06:51:54;;;;;;;4.60;2.67;;;13.80;99.90;;;;;;5115122;27;20198;-66
2022/05/21 06:54:22;;;;;;;1.57;1.50;;;13.80;99.90;;;;;;5114760;28;20727;-66
2022/05/21 06:56:49;;;;;;;2.60;2.37;;;13.80;99.90;;;;;;5114553;28;20675;-68
2022/05/21 06:59:18;;;;;;;19.90;5.43;;;14.00;99.90;;;;;;5114901;28;20224;-66
2022/05/21 07:01:45;;;;;;;2.07;1.87;;;14.00;99.90;;;;;;5115238;27;20218;-64
2022/05/21 07:04:14;;;;;;;3.73;2.60;;;14.00;99.90;;;;;;5116260;28;20285;-67
2022/05/21 07:09:26;;;;;;;0.67;0.67;;;14.30;99.90;;;;;;5116182;28;20650;-67
2022/05/21 07:11:53;;;;;;;11.10;2.90;;;14.60;99.90;;;;;;5116188;28;20206;-66
2022/05/21 07:14:22;;;;;;;1.93;1.70;;;14.50;99.90;;;;;;5113896;28;20233;-66
2022/05/21 07:16:50;;;;;;;3.37;2.13;;;14.50;99.90;;;;;;5114841;28;20550;-66
2022/05/21 07:19:17;;;;;;;12.63;3.93;;;14.40;99.90;;;;;;5114419;27;20225;-65
2022/05/21 07:21:43;;;;;;;9.70;1.80;;;14.40;99.90;;;;;;5114333;28;20262;-66
2022/05/21 07:24:11;;;;;;;7.20;3.17;;;14.70;99.90;;;;;;5113767;28;20669;-65
2022/05/21 07:26:38;;;;;;;1.27;1.20;;;14.70;99.90;;;;;;5114272;28;20221;-66
2022/05/21 07:29:06;;;;;;;4.43;1.57;;;14.80;99.90;;;;;;5113994;28;20205;-65
2022/05/21 07:31:35;;;;;;;4.60;1.80;;;15.00;99.90;;;;;;5114499;28;20204;-65
2022/05/21 07:34:02;;;;;;;2.23;1.90;;;15.00;99.90;;;;;;5114038;27;20263;-66
2022/05/21 07:36:29;;;;;;;4.50;2.63;;;15.20;99.90;;;;;;5113764;28;20233;-67
2022/05/21 07:38:56;;;;;;;3.47;3.17;;;15.20;99.90;;;;;;5114124;28;20296;-67
2022/05/21 07:41:25;;;;;;;4.40;2.43;;;15.40;99.90;;;;;;5113318;28;20220;-69
2022/05/21 07:43:52;;;;;;;1.83;1.07;;;15.40;99.90;;;;;;5114950;28;20190;-66
2022/05/21 07:46:19;;;;;;;3.07;2.70;;;15.70;99.90;;;;;;5115568;28;20204;-69
2022/05/21 07:48:48;;;;;;;3.00;2.13;;;15.90;99.90;;;;;;5115294;28;20574;-70
2022/05/21 07:51:15;;;;;;;7.87;2.83;;;16.10;99.90;;;;;;5115852;28;20197;-67
2022/05/21 07:53:42;;;;;;;5.70;2.37;;;15.70;99.90;;;;;;5113839;28;20202;-67
2022/05/21 07:56:11;;;;;;;4.10;1.60;;;15.80;99.90;;;;;;5113917;28;20207;-68
2022/05/21 07:58:38;;;;;;;3.67;1.70;;;16.00;99.90;;;;;;5114168;28;20202;-68
2022/05/21 08:01:05;;;;;;;6.10;2.83;;;16.10;99.90;;;;;;5113379;28;20269;-67
2022/05/21 08:03:33;;;;;;;1.80;1.70;;;15.60;99.90;;;;;;5113679;28;20205;-66
2022/05/21 08:06:01;;;;;;;6.17;2.33;;;15.50;99.90;;;;;;5114030;28;20202;-67
2022/05/21 08:08:28;;;;;;;1.83;1.73;;;15.70;99.90;;;;;;5113432;28;20231;-66
2022/05/21 08:10:55;;;;;;;6.43;3.77;;;15.60;99.90;;;;;;5113362;28;20624;-67
2022/05/21 08:13:23;;;;;;;2.43;2.23;;;15.50;99.90;;;;;;5113817;28;20197;-67
2022/05/21 08:15:50;;;;;;;3.90;1.93;;;16.30;99.90;;;;;;5113557;28;20207;-66
2022/05/21 08:18:18;;;;;;;4.73;2.50;;;16.30;99.90;;;;;;5113064;28;20201;-66
2022/05/21 08:20:45;;;;;;;1.03;0.93;;;16.50;99.90;;;;;;5114451;28;20566;-65
2022/05/21 08:28:46;;;;;;;1.23;1.13;;;16.50;99.90;;;;;;5113986;28;20207;-66
2022/05/21 08:31:13;;;;;;;2.93;2.00;;;16.40;99.90;;;;;;5112956;28;20226;-66
2022/05/21 08:33:40;;;;;;;4.27;2.20;;;17.20;99.90;;;;;;5113344;28;20278;-67
2022/05/21 08:36:07;;;;;;;3.17;2.43;;;17.20;99.90;;;;;;5113095;28;20232;-66
2022/05/21 08:38:36;;;;;;;1.30;0.90;;;16.70;99.90;;;;;;5113666;28;20211;-66
2022/05/21 08:41:06;;;;;;;4.13;2.40;;;16.20;99.90;;;;;;5114205;28;20244;-68
2022/05/21 08:43:50;;;;;;;4.23;1.57;;;16.70;99.90;;;;;;5114126;28;20183;-68
2022/05/21 08:46:26;;;;;;;1.63;1.53;;;16.40;99.90;;;;;;5114429;28;20188;-66
2022/05/21 08:48:57;;;;;;;3.73;1.73;;;16.90;99.90;;;;;;5115566;28;20180;-67
2022/05/21 08:51:28;;;;;;;2.30;1.83;;;17.50;99.90;;;;;;5115025;28;20202;-66
2022/05/21 08:53:58;;;;;;;4.93;2.47;;;18.00;99.90;;;;;;5118422;28;20192;-66
2022/05/21 08:56:28;;;;;;;5.77;2.63;;;17.30;99.90;;;;;;5118814;28;20181;-67
2022/05/21 08:59:01;;;;;;;1.10;0.60;;;17.50;99.90;;;;;;5118070;28;20205;-67
2022/05/21 09:01:28;;;;;;;6.67;3.10;;;17.90;99.90;;;;;;5118418;28;20205;-67
2022/05/21 09:03:56;;;;;;;3.53;2.47;;;17.90;99.90;;;;;;5118459;28;20229;-66
2022/05/21 09:06:35;;;;;;;3.23;1.97;;;17.20;99.90;;;;;;5117117;28;20727;-67
2022/05/21 09:09:13;;;;;;;1.20;1.17;;;17.20;99.90;;;;;;5115921;28;20607;-67
2022/05/21 09:11:46;;;;;;;2.10;1.97;;;17.70;99.90;;;;;;5117374;28;20185;-67
2022/05/21 09:14:16;;;;;;;1.07;0.97;;;17.40;99.90;;;;;;5116445;27;20635;-64
2022/05/21 09:16:56;;;;;;;5.47;1.43;;;17.10;99.90;;;;;;5117818;28;20646;-67
2022/05/21 09:19:25;;;;;;;1.90;1.80;;;17.00;99.90;;;;;;5116983;28;20192;-67
2022/05/21 09:21:59;;;;;;;0.40;0.40;;;17.90;99.90;;;;;;5117194;27;20287;-66
2022/05/21 09:24:40;;;;;;;8.83;3.57;;;17.90;99.90;;;;;;5117220;28;20180;-65
2022/05/21 09:27:27;;;;;;;2.87;1.07;;;16.90;99.90;;;;;;5117053;28;20185;-67
2022/05/21 09:30:10;;;;;;;4.67;2.33;;;18.00;99.90;;;;;;5116236;28;20559;-67
2022/05/21 09:32:39;;;;;;;5.77;2.30;;;18.50;99.90;;;;;;5118947;28;20595;-66
2022/05/21 09:35:11;;;;;;;1.77;1.17;;;18.70;99.90;;;;;;5116743;28;20262;-66
2022/05/21 09:37:39;;;;;;;2.83;1.83;;;19.10;99.90;;;;;;5116922;28;20268;-66
2022/05/21 09:40:25;;;;;;;1.92;1.48;;;19.60;99.90;;;;;;5116613;28;20209;-65
2022/05/21 09:45:39;;;;;;;4.27;1.80;;;19.20;74.80;;;;;;5116804;28;20167;-68
2022/05/21 09:48:19;;;;;;;34.27;2.50;;;19.10;73.70;;;;;;5116400;28;20193;-65
2022/05/21 09:50:49;;;;;;;9.35;1.80;;;19.40;62.40;;;;;;5116188;28;20663;-65
2022/05/21 09:53:33;;;;;;;5.73;1.53;;;19.30;67.40;;;;;;5117893;28;20188;-68
2022/05/21 09:56:05;;;;;;;2.57;2.07;;;19.30;22.60;;;;;;5116424;28;20659;-68
2022/05/21 09:58:35;;;;;;;3.72;1.58;;;19.50;17.80;;;;;;5116260;28;20186;-67
2022/05/21 10:01:02;;;;;;;4.07;1.27;;;19.30;1.40;;;;;;5116075;28;20274;-68
2022/05/21 10:03:42;;;;;;;2.63;1.83;;;19.60;18.60;;;;;;5116168;28;20614;-68
2022/05/21 10:06:25;;;;;;;2.05;1.30;;;20.10;4.00;;;;;;5116502;28;20204;-68
2022/05/21 10:11:53;;;;;;;1.65;1.27;;;20.10;1.00;;;;;;5115612;28;20272;-68
2022/05/21 10:14:24;;;;;;;0.35;0.35;;;19.40;1.00;;;;;;5115844;28;20779;-64
2022/05/21 10:16:56;;;;;;;1.43;0.70;;;19.30;1.00;;;;;;5115935;28;20200;-67
2022/05/21 10:19:30;;;;;;;3.53;2.17;;;19.30;1.00;;;;;;5115485;28;20639;-68
2022/05/21 10:22:26;;;;;;;3.10;1.60;;;18.60;1.00;;;;;;5115772;28;20201;-68
2022/05/21 10:25:05;;;;;;;3.43;1.63;;;18.30;1.00;;;;;;5113706;28;20606;-67
2022/05/21 10:28:12;;;;;;;8.50;2.67;;;18.30;1.00;;;;;;5115665;28;20182;-69
2022/05/21 10:30:58;;;;;;;6.07;2.33;;;18.90;1.00;;;;;;5115743;28;20177;-68
2022/05/21 10:33:47;;;;;;;3.67;1.90;;;19.40;1.00;;;;;;5115696;28;20290;-65
2022/05/21 10:36:29;;;;;;;5.30;2.00;;;19.40;1.00;;;;;;5114895;28;20240;-63
2022/05/21 10:39:17;;;;;;;1.93;1.67;;;19.50;1.00;;;;;;5115562;28;20186;-63
2022/05/21 10:42:08;;;;;;;3.38;1.77;;;19.80;1.00;;;;;;5115522;28;20195;-64
2022/05/21 10:44:48;;;;;;;2.13;0.93;;;19.80;1.00;;;;;;5114919;28;20183;-62
2022/05/21 10:47:27;;;;;;;3.63;2.10;;;19.50;1.00;;;;;;5114739;28;20181;-63
2022/05/21 10:50:15;;;;;;;2.47;1.10;;;19.10;1.00;;;;;;5115179;28;20192;-63
2022/05/21 10:52:58;;;;;;;9.60;2.47;;;18.60;1.00;;;;;;5115214;28;20209;-63
2022/05/21 10:55:31;;;;;;;1.10;1.10;;;18.50;1.00;;;;;;5114809;28;20550;-63
2022/05/21 10:58:18;;;;;;;8.70;1.90;;;19.00;1.00;;;;;;5115081;27;20185;-63
2022/05/21 11:00:54;;;;;;;2.22;1.10;;;19.80;1.00;;;;;;5114957;28;20193;-63
2022/05/21 11:03:39;;;;;;;1.17;1.02;;;21.10;1.00;;;;;;5114956;28;20180;-63
2022/05/21 11:06:20;;;;;;;3.88;2.38;;;21.10;1.00;;;;;;5113586;28;20224;-62
2022/05/21 11:09:02;;;;;;;2.72;1.60;;;19.90;1.00;;;;;;5111985;28;20190;-63
2022/05/21 11:11:39;;;;;;;9.18;3.15;;;19.20;1.00;;;;;;5115358;28;20170;-62
2022/05/21 11:14:13;;;;;;;0.85;0.85;;;18.80;1.00;;;;;;5114015;28;20181;-62
2022/05/21 11:16:46;;;;;;;2.53;1.50;;;18.70;1.00;;;;;;5113585;28;20189;-62
2022/05/21 11:19:20;;;;;;;3.77;1.47;;;19.00;1.00;;;;;;5114669;28;20182;-62
2022/05/21 11:21:52;;;;;;;0.93;0.93;;;19.50;1.00;;;;;;5114956;28;20228;-63
2022/05/21 11:24:25;;;;;;;2.50;1.23;;;19.90;1.00;;;;;;5114324;28;20170;-63
2022/05/21 11:26:57;;;;;;;3.93;2.00;;;19.50;1.00;;;;;;5114739;28;20194;-63
2022/05/21 11:29:35;;;;;;;2.93;2.60;;;19.30;1.00;;;;;;5114193;28;20184;-62
2022/05/21 11:37:43;;;;;;;4.97;2.40;;;19.80;1.00;;;;;;5114242;28;20594;-62
2022/05/21 11:40:30;;;;;;;3.35;2.25;;;20.90;1.00;;;;;;5114190;28;20207;-62
2022/05/21 11:42:59;;;;;;;2.70;2.05;;;21.10;1.00;;;;;;5113566;28;20224;-61
2022/05/21 11:45:27;;;;;;;4.47;1.83;;;21.60;1.00;;;;;;5113886;28;20197;-61
2022/05/21 11:47:58;;;;;;;2.08;1.98;;;20.90;1.00;;;;;;5113170;28;20194;-61
2022/05/21 11:50:31;;;;;;;8.70;2.47;;;20.90;1.00;;;;;;5113674;28;20584;-62
2022/05/21 11:53:06;;;;;;;2.80;1.13;;;21.00;1.00;;;;;;5113620;28;20546;-62
2022/05/21 11:55:58;;;;;;;2.20;1.38;;;21.00;1.00;;;;;;5113562;28;20643;-62
2022/05/21 11:59:00;;;;;;;1.65;1.48;;;21.00;1.00;;;;;;5113584;28;20200;-62
2022/05/21 12:02:00;;;;;;;2.25;2.00;;;20.60;1.00;;;;;;5113070;28;20231;-62
2022/05/21 12:04:47;;;;;;;1.98;1.73;;;20.10;1.00;;;;;;5113820;28;20221;-62
2022/05/21 12:07:17;;;;;;;1.83;1.70;;;19.90;1.00;;;;;;5114211;28;20299;-63
2022/05/21 12:10:01;;;;;;;4.85;2.10;;;19.60;1.00;;;;;;5114027;28;20669;-63
2022/05/21 12:12:30;;;;;;;3.30;1.95;;;19.40;1.00;;;;;;5114851;28;20224;-64
2022/05/21 12:15:11;;;;;;;4.10;1.97;;;19.90;1.00;;;;;;5115506;28;20207;-62
2022/05/21 12:17:53;;;;;;;2.60;1.97;;;19.70;1.00;;;;;;5114742;28;20280;-63
2022/05/21 12:20:42;;;;;;;3.83;1.67;;;19.70;1.00;;;;;;5113105;28;20224;-62
2022/05/21 12:23:13;;;;;;;3.13;1.83;;;19.90;1.00;;;;;;5114495;28;20236;-63
2022/05/21 12:25:59;;;;;;;6.60;1.92;;;20.00;1.00;;;;;;5114740;28;20235;-63
2022/05/21 12:28:52;;;;;;;2.35;1.33;;;20.40;1.00;;;;;;5112752;28;20587;-62
2022/05/21 12:31:25;;;;;;;1.35;1.25;;;21.30;1.00;;;;;;5098273;28;20266;-63
2022/05/21 12:34:12;;;;;;;2.17;1.40;;;21.40;1.00;;;;;;5113075;28;20201;-63
2022/05/21 12:36:52;;;;;;;2.95;1.92;;;20.90;1.00;;;;;;5112201;28;20253;-62
2022/05/21 12:39:27;;;;;;;2.88;1.63;;;20.80;1.00;;;;;;5112403;28;20182;-63
2022/05/21 12:41:59;;;;;;;2.00;1.27;;;20.70;1.00;;;;;;5113232;28;20551;-65
2022/05/21 12:44:40;;;;;;;4.75;1.55;;;21.10;1.00;;;;;;5112772;28;20212;-64
2022/05/21 12:47:11;;;;;;;3.83;1.42;;;21.20;1.00;;;;;;5112448;28;20174;-64
2022/05/21 12:49:47;;;;;;;3.25;1.27;;;20.90;1.00;;;;;;5112496;28;20284;-64
2022/05/21 12:52:25;;;;;;;2.25;1.05;;;20.70;1.00;;;;;;5112971;28;20516;-64
2022/05/21 12:55:25;;;;;;;3.67;2.50;;;20.60;1.00;;;;;;5112759;28;20211;-65
2022/05/21 12:57:54;;;;;;;1.23;1.00;;;20.70;1.00;;;;;;5112461;28;20646;-65
2022/05/21 13:00:24;;;;;;;1.63;1.00;;;20.50;1.00;;;;;;5112716;28;20606;-64
2022/05/21 13:02:53;;;;;;;3.83;1.15;;;20.60;1.00;;;;;;5112513;28;20747;-65
2022/05/21 13:05:25;;;;;;;2.42;2.22;;;20.70;1.00;;;;;;5111626;28;20202;-65
2022/05/21 13:07:54;;;;;;;0.05;0.05;;;20.90;1.00;;;;;;5111167;28;20190;-64
2022/05/21 13:10:24;;;;;;;0.25;0.25;;;21.40;1.00;;;;;;5111443;28;20197;-64
2022/05/21 13:12:56;;;;;;;1.65;1.42;;;23.00;1.00;;;;;;5111775;28;20308;-64
2022/05/21 13:15:27;;;;;;;1.27;0.93;;;23.50;1.00;;;;;;5111815;28;20182;-64
2022/05/21 13:18:18;;;;;;;3.83;2.90;;;23.60;1.00;;;;;;5112433;28;20266;-65
2022/05/21 13:20:54;;;;;;;2.30;1.48;;;22.60;1.00;;;;;;5112543;28;20194;-64
2022/05/21 13:23:45;;;;;;;2.28;2.08;;;22.10;1.00;;;;;;5112083;28;20205;-64
2022/05/21 13:26:20;;;;;;;1.98;1.52;;;21.50;1.00;;;;;;5111513;28;20194;-65
2022/05/21 13:28:47;;;;;;;1.13;0.70;;;20.80;1.00;;;;;;5112418;28;20213;-64
2022/05/21 13:31:19;;;;;;;1.48;1.35;;;20.70;1.00;;;;;;5112334;28;20206;-65
2022/05/21 13:33:49;;;;;;;0.30;0.30;;;20.70;1.00;;;;;;5111987;28;20692;-65
2022/05/21 13:36:22;;;;;;;2.83;1.48;;;21.20;1.00;;;;;;5111864;28;20234;-64
2022/05/21 13:38:53;;;;;;;0.73;0.47;;;21.60;1.00;;;;;;5113742;28;20200;-64
2022/05/21 13:41:28;;;;;;;0.40;0.40;;;21.90;1.00;;;;;;5115721;28;20212;-64